sensor_id;sensor_type;location;lat;lon;timestamp;pressure;altitude;pressure_sealevel;temperature;humidity
62164;BME280;48149;51.132;7.178;2023-04-06T00:01:00;98845.38;;;12.84;nan
62164;BME280;48149;51.132;7.178;2023-04-06T00:03:26;98853.38;;;12.41;nan
62164;BME280;48149;51.132;7.178;2023-04-06T00:05:51;98843.81;;;13.13;nan
62164;BME280;48149;51.132;7.178;2023-04-06T00:08:17;98840.16;;;12.66;nan
62164;BME280;48149;51.132;7.178;2023-04-06T00:10:42;98845.16;;;11.70;nan
62164;BME280;48149;51.132;7.178;2023-04-06T00:13:07;98842.81;;;11.62;nan
62164;BME280;48149;51.132;7.178;2023-04-06T00:15:33;98849.66;;;11.00;nan
62164;BME280;48149;51.132;7.178;2023-04-06T00:17:58;98852.13;;;10.89;nan
62164;BME280;48149;51.132;7.178;2023-04-06T00:20:23;98840.59;;;11.34;nan
62164;BME280;48149;51.132;7.178;2023-04-06T00:22:48;98841.03;;;11.31;nan
62164;BME280;48149;51.132;7.178;2023-04-06T00:25:14;98840.22;;;11.31;nan
62164;BME280;48149;51.132;7.178;2023-04-06T00:27:40;98841.03;;;10.93;nan
62164;BME280;48149;51.132;7.178;2023-04-06T00:30:06;98829.81;;;10.80;nan
62164;BME280;48149;51.132;7.178;2023-04-06T00:32:31;98839.25;;;10.36;nan
62164;BME280;48149;51.132;7.178;2023-04-06T00:34:57;98830.06;;;10.21;nan
62164;BME280;48149;51.132;7.178;2023-04-06T00:37:22;98825.44;;;10.67;nan
62164;BME280;48149;51.132;7.178;2023-04-06T00:39:48;98825.28;;;11.00;nan
62164;BME280;48149;51.132;7.178;2023-04-06T00:42:13;98825.78;;;10.84;nan
62164;BME280;48149;51.132;7.178;2023-04-06T00:44:39;98812.53;;;10.72;nan
62164;BME280;48149;51.132;7.178;2023-04-06T00:47:04;98820.25;;;10.60;nan
62164;BME280;48149;51.132;7.178;2023-04-06T00:49:30;98817.78;;;10.65;nan
62164;BME280;48149;51.132;7.178;2023-04-06T00:51:57;98816.44;;;10.94;nan
62164;BME280;48149;51.132;7.178;2023-04-06T00:54:22;98816.13;;;10.33;nan
62164;BME280;48149;51.132;7.178;2023-04-06T00:56:47;98812.44;;;10.92;nan
62164;BME280;48149;51.132;7.178;2023-04-06T00:59:12;98806.84;;;11.13;nan
62164;BME280;48149;51.132;7.178;2023-04-06T01:01:38;98810.91;;;10.78;nan
62164;BME280;48149;51.132;7.178;2023-04-06T01:04:03;98804.63;;;10.79;nan
62164;BME280;48149;51.132;7.178;2023-04-06T01:06:28;98801.06;;;10.66;nan
62164;BME280;48149;51.132;7.178;2023-04-06T01:08:54;98791.56;;;10.72;nan
62164;BME280;48149;51.132;7.178;2023-04-06T01:11:19;98794.00;;;10.74;nan
62164;BME280;48149;51.132;7.178;2023-04-06T01:13:44;98790.47;;;10.93;nan
62164;BME280;48149;51.132;7.178;2023-04-06T01:16:10;98790.38;;;10.75;nan
62164;BME280;48149;51.132;7.178;2023-04-06T01:18:35;98777.94;;;10.63;nan
62164;BME280;48149;51.132;7.178;2023-04-06T01:21:02;98782.91;;;10.71;nan
62164;BME280;48149;51.132;7.178;2023-04-06T01:23:27;98788.00;;;10.66;nan
62164;BME280;48149;51.132;7.178;2023-04-06T01:25:52;98778.22;;;10.49;nan
62164;BME280;48149;51.132;7.178;2023-04-06T01:28:18;98783.94;;;10.70;nan
62164;BME280;48149;51.132;7.178;2023-04-06T01:30:43;98777.06;;;10.76;nan
62164;BME280;48149;51.132;7.178;2023-04-06T01:33:08;98784.06;;;10.44;nan
62164;BME280;48149;51.132;7.178;2023-04-06T01:35:33;98773.78;;;9.79;nan
62164;BME280;48149;51.132;7.178;2023-04-06T01:37:59;98771.16;;;9.65;nan
62164;BME280;48149;51.132;7.178;2023-04-06T01:40:24;98767.44;;;10.19;nan
62164;BME280;48149;51.132;7.178;2023-04-06T01:42:49;98767.69;;;9.98;nan
62164;BME280;48149;51.132;7.178;2023-04-06T01:45:15;98760.06;;;9.90;nan
62164;BME280;48149;51.132;7.178;2023-04-06T01:47:40;98761.22;;;10.07;nan
62164;BME280;48149;51.132;7.178;2023-04-06T01:50:06;98755.25;;;9.80;nan
62164;BME280;48149;51.132;7.178;2023-04-06T01:52:35;98759.31;;;9.76;nan
62164;BME280;48149;51.132;7.178;2023-04-06T01:55:00;98754.09;;;9.30;nan
62164;BME280;48149;51.132;7.178;2023-04-06T01:57:25;98756.47;;;9.64;nan
62164;BME280;48149;51.132;7.178;2023-04-06T01:59:51;98751.34;;;10.09;nan
62164;BME280;48149;51.132;7.178;2023-04-06T02:02:16;98753.78;;;10.17;nan
62164;BME280;48149;51.132;7.178;2023-04-06T02:04:41;98755.19;;;10.06;nan
62164;BME280;48149;51.132;7.178;2023-04-06T02:07:07;98748.56;;;10.04;nan
62164;BME280;48149;51.132;7.178;2023-04-06T02:09:32;98751.19;;;10.04;nan
62164;BME280;48149;51.132;7.178;2023-04-06T02:11:57;98754.50;;;9.67;nan
62164;BME280;48149;51.132;7.178;2023-04-06T02:14:24;98760.88;;;9.84;nan
62164;BME280;48149;51.132;7.178;2023-04-06T02:16:50;98760.44;;;9.93;nan
62164;BME280;48149;51.132;7.178;2023-04-06T02:19:15;98754.78;;;10.03;nan
62164;BME280;48149;51.132;7.178;2023-04-06T02:21:40;98753.97;;;10.09;nan
62164;BME280;48149;51.132;7.178;2023-04-06T02:24:06;98749.56;;;10.03;nan
62164;BME280;48149;51.132;7.178;2023-04-06T02:26:31;98748.72;;;10.09;nan
62164;BME280;48149;51.132;7.178;2023-04-06T02:28:56;98750.34;;;10.10;nan
62164;BME280;48149;51.132;7.178;2023-04-06T02:31:21;98743.81;;;9.68;nan
62164;BME280;48149;51.132;7.178;2023-04-06T02:33:47;98748.16;;;10.07;nan
62164;BME280;48149;51.132;7.178;2023-04-06T02:36:12;98749.97;;;10.00;nan
62164;BME280;48149;51.132;7.178;2023-04-06T02:38:37;98749.00;;;9.94;nan
62164;BME280;48149;51.132;7.178;2023-04-06T02:41:03;98747.81;;;9.84;nan
62164;BME280;48149;51.132;7.178;2023-04-06T02:43:28;98741.19;;;10.45;nan
62164;BME280;48149;51.132;7.178;2023-04-06T02:45:53;98740.13;;;10.02;nan
62164;BME280;48149;51.132;7.178;2023-04-06T02:48:19;98735.88;;;10.58;nan
62164;BME280;48149;51.132;7.178;2023-04-06T02:50:44;98736.78;;;10.39;nan
62164;BME280;48149;51.132;7.178;2023-04-06T02:53:10;98734.44;;;10.18;nan
62164;BME280;48149;51.132;7.178;2023-04-06T02:55:35;98732.72;;;10.43;nan
62164;BME280;48149;51.132;7.178;2023-04-06T02:58:00;98728.25;;;10.50;nan
62164;BME280;48149;51.132;7.178;2023-04-06T03:00:25;98731.72;;;10.44;nan
62164;BME280;48149;51.132;7.178;2023-04-06T03:02:51;98734.53;;;9.85;nan
62164;BME280;48149;51.132;7.178;2023-04-06T03:05:16;98723.22;;;10.55;nan
62164;BME280;48149;51.132;7.178;2023-04-06T03:07:41;98722.94;;;10.32;nan
62164;BME280;48149;51.132;7.178;2023-04-06T03:10:07;98719.69;;;9.73;nan
62164;BME280;48149;51.132;7.178;2023-04-06T03:12:32;98720.91;;;10.28;nan
62164;BME280;48149;51.132;7.178;2023-04-06T03:14:57;98730.69;;;9.94;nan
62164;BME280;48149;51.132;7.178;2023-04-06T03:17:23;98721.91;;;9.76;nan
62164;BME280;48149;51.132;7.178;2023-04-06T03:19:48;98726.59;;;10.18;nan
62164;BME280;48149;51.132;7.178;2023-04-06T03:22:13;98724.84;;;10.50;nan
62164;BME280;48149;51.132;7.178;2023-04-06T03:24:38;98729.28;;;9.98;nan
62164;BME280;48149;51.132;7.178;2023-04-06T03:27:03;98722.44;;;9.91;nan
62164;BME280;48149;51.132;7.178;2023-04-06T03:29:29;98724.97;;;10.24;nan
62164;BME280;48149;51.132;7.178;2023-04-06T03:31:54;98720.78;;;10.09;nan
62164;BME280;48149;51.132;7.178;2023-04-06T03:34:20;98720.06;;;10.40;nan
62164;BME280;48149;51.132;7.178;2023-04-06T03:36:45;98729.47;;;9.90;nan
62164;BME280;48149;51.132;7.178;2023-04-06T03:39:10;98725.19;;;10.09;nan
62164;BME280;48149;51.132;7.178;2023-04-06T03:41:36;98726.09;;;9.83;nan
62164;BME280;48149;51.132;7.178;2023-04-06T03:44:01;98724.63;;;10.00;nan
62164;BME280;48149;51.132;7.178;2023-04-06T03:46:26;98727.13;;;9.76;nan
62164;BME280;48149;51.132;7.178;2023-04-06T03:48:51;98729.59;;;9.31;nan
62164;BME280;48149;51.132;7.178;2023-04-06T03:51:17;98731.78;;;9.47;nan
62164;BME280;48149;51.132;7.178;2023-04-06T03:53:42;98729.97;;;9.61;nan
62164;BME280;48149;51.132;7.178;2023-04-06T03:56:07;98734.53;;;9.85;nan
62164;BME280;48149;51.132;7.178;2023-04-06T03:58:33;98731.34;;;9.83;nan
62164;BME280;48149;51.132;7.178;2023-04-06T04:00:58;98736.75;;;9.82;nan
62164;BME280;48149;51.132;7.178;2023-04-06T04:03:23;98728.38;;;9.47;nan
62164;BME280;48149;51.132;7.178;2023-04-06T04:05:51;98732.38;;;9.43;nan
62164;BME280;48149;51.132;7.178;2023-04-06T04:08:16;98734.19;;;9.49;nan
62164;BME280;48149;51.132;7.178;2023-04-06T04:10:41;98735.16;;;9.68;nan
62164;BME280;48149;51.132;7.178;2023-04-06T04:13:06;98731.09;;;9.91;nan
62164;BME280;48149;51.132;7.178;2023-04-06T04:15:32;98737.84;;;10.12;nan
62164;BME280;48149;51.132;7.178;2023-04-06T04:17:57;98736.38;;;9.72;nan
62164;BME280;48149;51.132;7.178;2023-04-06T04:20:22;98736.00;;;8.96;nan
62164;BME280;48149;51.132;7.178;2023-04-06T04:22:47;98734.16;;;8.70;nan
62164;BME280;48149;51.132;7.178;2023-04-06T04:25:13;98735.97;;;8.76;nan
62164;BME280;48149;51.132;7.178;2023-04-06T04:27:38;98734.34;;;8.55;nan
62164;BME280;48149;51.132;7.178;2023-04-06T04:30:04;98729.97;;;8.76;nan
62164;BME280;48149;51.132;7.178;2023-04-06T04:32:30;98730.38;;;8.79;nan
62164;BME280;48149;51.132;7.178;2023-04-06T04:34:56;98726.72;;;8.61;nan
62164;BME280;48149;51.132;7.178;2023-04-06T04:37:24;98740.44;;;9.28;nan
62164;BME280;48149;51.132;7.178;2023-04-06T04:39:49;98739.63;;;9.41;nan
62164;BME280;48149;51.132;7.178;2023-04-06T04:42:15;98727.06;;;10.02;nan
62164;BME280;48149;51.132;7.178;2023-04-06T04:44:40;98734.00;;;9.50;nan
62164;BME280;48149;51.132;7.178;2023-04-06T04:47:05;98726.19;;;9.31;nan
62164;BME280;48149;51.132;7.178;2023-04-06T04:49:31;98726.34;;;9.42;nan
62164;BME280;48149;51.132;7.178;2023-04-06T04:51:56;98733.56;;;9.73;nan
62164;BME280;48149;51.132;7.178;2023-04-06T04:54:21;98718.97;;;9.26;nan
62164;BME280;48149;51.132;7.178;2023-04-06T04:56:46;98728.78;;;9.11;nan
62164;BME280;48149;51.132;7.178;2023-04-06T04:59:12;98727.94;;;8.65;nan
62164;BME280;48149;51.132;7.178;2023-04-06T05:01:37;98728.38;;;9.34;nan
62164;BME280;48149;51.132;7.178;2023-04-06T05:04:02;98723.94;;;8.69;nan
62164;BME280;48149;51.132;7.178;2023-04-06T05:06:27;98726.50;;;8.49;nan
62164;BME280;48149;51.132;7.178;2023-04-06T05:08:53;98726.56;;;8.82;nan
62164;BME280;48149;51.132;7.178;2023-04-06T05:11:18;98728.13;;;8.56;nan
62164;BME280;48149;51.132;7.178;2023-04-06T05:13:43;98733.22;;;8.97;nan
62164;BME280;48149;51.132;7.178;2023-04-06T05:16:08;98736.44;;;9.32;nan
62164;BME280;48149;51.132;7.178;2023-04-06T05:18:34;98737.00;;;9.01;nan
62164;BME280;48149;51.132;7.178;2023-04-06T05:20:59;98734.00;;;9.11;nan
62164;BME280;48149;51.132;7.178;2023-04-06T05:23:25;98731.78;;;8.75;nan
62164;BME280;48149;51.132;7.178;2023-04-06T05:25:50;98738.44;;;9.04;nan
62164;BME280;48149;51.132;7.178;2023-04-06T05:28:15;98731.59;;;9.03;nan
62164;BME280;48149;51.132;7.178;2023-04-06T05:30:41;98733.19;;;9.56;nan
62164;BME280;48149;51.132;7.178;2023-04-06T05:33:07;98736.63;;;9.37;nan
62164;BME280;48149;51.132;7.178;2023-04-06T05:35:32;98731.28;;;8.39;nan
62164;BME280;48149;51.132;7.178;2023-04-06T05:37:57;98731.00;;;9.14;nan
62164;BME280;48149;51.132;7.178;2023-04-06T05:40:22;98733.41;;;9.22;nan
62164;BME280;48149;51.132;7.178;2023-04-06T05:42:48;98731.00;;;9.34;nan
62164;BME280;48149;51.132;7.178;2023-04-06T05:45:14;98734.81;;;9.57;nan
62164;BME280;48149;51.132;7.178;2023-04-06T05:47:43;98732.66;;;10.05;nan
62164;BME280;48149;51.132;7.178;2023-04-06T05:50:09;98740.03;;;9.57;nan
62164;BME280;48149;51.132;7.178;2023-04-06T05:52:35;98730.81;;;9.42;nan
62164;BME280;48149;51.132;7.178;2023-04-06T05:55:00;98735.81;;;9.17;nan
62164;BME280;48149;51.132;7.178;2023-04-06T05:57:25;98737.94;;;9.99;nan
62164;BME280;48149;51.132;7.178;2023-04-06T05:59:51;98734.22;;;9.23;nan
62164;BME280;48149;51.132;7.178;2023-04-06T06:02:16;98735.66;;;10.09;nan
62164;BME280;48149;51.132;7.178;2023-04-06T06:04:41;98739.06;;;10.67;nan
62164;BME280;48149;51.132;7.178;2023-04-06T06:07:07;98739.28;;;10.21;nan
62164;BME280;48149;51.132;7.178;2023-04-06T06:09:32;98734.09;;;10.52;nan
62164;BME280;48149;51.132;7.178;2023-04-06T06:11:57;98742.94;;;9.94;nan
62164;BME280;48149;51.132;7.178;2023-04-06T06:14:22;98734.00;;;10.28;nan
62164;BME280;48149;51.132;7.178;2023-04-06T06:16:48;98733.91;;;10.47;nan
62164;BME280;48149;51.132;7.178;2023-04-06T06:19:13;98727.41;;;10.05;nan
62164;BME280;48149;51.132;7.178;2023-04-06T06:21:38;98731.47;;;10.08;nan
62164;BME280;48149;51.132;7.178;2023-04-06T06:24:03;98737.13;;;9.92;nan
62164;BME280;48149;51.132;7.178;2023-04-06T06:26:29;98737.91;;;10.88;nan
62164;BME280;48149;51.132;7.178;2023-04-06T06:28:54;98738.50;;;10.58;nan
62164;BME280;48149;51.132;7.178;2023-04-06T06:31:20;98737.72;;;10.51;nan
62164;BME280;48149;51.132;7.178;2023-04-06T06:33:47;98734.69;;;10.86;nan
62164;BME280;48149;51.132;7.178;2023-04-06T06:36:15;98746.25;;;10.71;nan
62164;BME280;48149;51.132;7.178;2023-04-06T06:38:40;98745.47;;;11.02;nan
62164;BME280;48149;51.132;7.178;2023-04-06T06:41:06;98746.06;;;10.35;nan
62164;BME280;48149;51.132;7.178;2023-04-06T06:43:31;98741.09;;;10.65;nan
62164;BME280;48149;51.132;7.178;2023-04-06T06:45:56;98742.41;;;10.43;nan
62164;BME280;48149;51.132;7.178;2023-04-06T06:48:21;98739.06;;;12.09;nan
62164;BME280;48149;51.132;7.178;2023-04-06T06:50:47;98742.41;;;11.55;nan
62164;BME280;48149;51.132;7.178;2023-04-06T06:53:13;98747.34;;;11.20;nan
62164;BME280;48149;51.132;7.178;2023-04-06T06:55:38;98739.94;;;11.85;nan
62164;BME280;48149;51.132;7.178;2023-04-06T06:58:03;98735.84;;;11.21;nan
62164;BME280;48149;51.132;7.178;2023-04-06T07:00:29;98739.47;;;10.95;nan
62164;BME280;48149;51.132;7.178;2023-04-06T07:02:54;98744.31;;;10.92;nan
62164;BME280;48149;51.132;7.178;2023-04-06T07:05:19;98743.47;;;10.29;nan
62164;BME280;48149;51.132;7.178;2023-04-06T07:07:45;98735.03;;;11.45;nan
62164;BME280;48149;51.132;7.178;2023-04-06T07:10:10;98732.97;;;11.04;nan
62164;BME280;48149;51.132;7.178;2023-04-06T07:12:35;98729.97;;;11.25;nan
62164;BME280;48149;51.132;7.178;2023-04-06T07:15:01;98726.97;;;11.71;nan
62164;BME280;48149;51.132;7.178;2023-04-06T07:17:26;98731.78;;;11.93;nan
62164;BME280;48149;51.132;7.178;2023-04-06T07:19:51;98730.38;;;13.74;nan
62164;BME280;48149;51.132;7.178;2023-04-06T07:22:17;98731.94;;;12.75;nan
62164;BME280;48149;51.132;7.178;2023-04-06T07:24:42;98729.38;;;14.03;nan
62164;BME280;48149;51.132;7.178;2023-04-06T07:27:07;98730.69;;;13.19;nan
62164;BME280;48149;51.132;7.178;2023-04-06T07:29:32;98727.06;;;12.61;nan
62164;BME280;48149;51.132;7.178;2023-04-06T07:31:58;98730.66;;;13.08;nan
62164;BME280;48149;51.132;7.178;2023-04-06T07:34:23;98728.19;;;13.71;nan
62164;BME280;48149;51.132;7.178;2023-04-06T07:36:48;98723.25;;;13.16;nan
62164;BME280;48149;51.132;7.178;2023-04-06T07:39:14;98722.25;;;13.41;nan
62164;BME280;48149;51.132;7.178;2023-04-06T07:41:39;98723.13;;;13.93;nan
62164;BME280;48149;51.132;7.178;2023-04-06T07:44:04;98716.75;;;15.02;nan
62164;BME280;48149;51.132;7.178;2023-04-06T07:46:30;98724.00;;;14.21;nan
62164;BME280;48149;51.132;7.178;2023-04-06T07:48:56;98724.19;;;14.60;nan
62164;BME280;48149;51.132;7.178;2023-04-06T07:51:22;98723.47;;;15.26;nan
62164;BME280;48149;51.132;7.178;2023-04-06T07:53:47;98724.94;;;14.43;nan
62164;BME280;48149;51.132;7.178;2023-04-06T07:56:12;98718.34;;;14.86;nan
62164;BME280;48149;51.132;7.178;2023-04-06T07:58:38;98711.41;;;14.52;nan
62164;BME280;48149;51.132;7.178;2023-04-06T08:01:03;98713.22;;;15.46;nan
62164;BME280;48149;51.132;7.178;2023-04-06T08:03:28;98715.41;;;15.66;nan
62164;BME280;48149;51.132;7.178;2023-04-06T08:05:54;98710.63;;;15.13;nan
62164;BME280;48149;51.132;7.178;2023-04-06T08:08:20;98712.84;;;15.21;nan
62164;BME280;48149;51.132;7.178;2023-04-06T08:10:46;98714.13;;;16.33;nan
62164;BME280;48149;51.132;7.178;2023-04-06T08:13:12;98709.97;;;15.39;nan
62164;BME280;48149;51.132;7.178;2023-04-06T08:15:37;98709.91;;;15.34;nan
62164;BME280;48149;51.132;7.178;2023-04-06T08:18:02;98718.13;;;15.37;nan
62164;BME280;48149;51.132;7.178;2023-04-06T08:20:27;98714.53;;;16.69;nan
62164;BME280;48149;51.132;7.178;2023-04-06T08:22:53;98718.97;;;15.76;nan
62164;BME280;48149;51.132;7.178;2023-04-06T08:25:18;98713.97;;;15.96;nan
62164;BME280;48149;51.132;7.178;2023-04-06T08:27:43;98720.91;;;17.73;nan
62164;BME280;48149;51.132;7.178;2023-04-06T08:30:09;98709.13;;;16.85;nan
62164;BME280;48149;51.132;7.178;2023-04-06T08:32:34;98720.00;;;16.62;nan
62164;BME280;48149;51.132;7.178;2023-04-06T08:34:59;98716.81;;;17.19;nan
62164;BME280;48149;51.132;7.178;2023-04-06T08:37:25;98718.50;;;17.67;nan
62164;BME280;48149;51.132;7.178;2023-04-06T08:39:50;98715.66;;;16.08;nan
62164;BME280;48149;51.132;7.178;2023-04-06T08:42:19;98722.19;;;17.29;nan
62164;BME280;48149;51.132;7.178;2023-04-06T08:44:45;98715.28;;;18.11;nan
62164;BME280;48149;51.132;7.178;2023-04-06T08:47:11;98713.03;;;17.83;nan
62164;BME280;48149;51.132;7.178;2023-04-06T08:49:37;98714.84;;;18.40;nan
62164;BME280;48149;51.132;7.178;2023-04-06T08:52:05;98711.25;;;19.37;nan
62164;BME280;48149;51.132;7.178;2023-04-06T08:54:30;98712.06;;;18.04;nan
62164;BME280;48149;51.132;7.178;2023-04-06T08:56:56;98706.22;;;19.15;nan
62164;BME280;48149;51.132;7.178;2023-04-06T08:59:23;98709.91;;;18.74;nan
62164;BME280;48149;51.132;7.178;2023-04-06T09:01:48;98700.09;;;19.14;nan
62164;BME280;48149;51.132;7.178;2023-04-06T09:04:13;98702.47;;;19.66;nan
62164;BME280;48149;51.132;7.178;2023-04-06T09:06:39;98702.72;;;18.69;nan
62164;BME280;48149;51.132;7.178;2023-04-06T09:09:05;98707.03;;;19.00;nan
62164;BME280;48149;51.132;7.178;2023-04-06T09:11:41;98706.22;;;19.50;nan
62164;BME280;48149;51.132;7.178;2023-04-06T09:14:06;98711.56;;;20.73;nan
62164;BME280;48149;51.132;7.178;2023-04-06T09:16:38;98705.84;;;19.87;nan
62164;BME280;48149;51.132;7.178;2023-04-06T09:19:04;98703.72;;;18.48;nan
62164;BME280;48149;51.132;7.178;2023-04-06T09:21:29;98706.69;;;18.67;nan
62164;BME280;48149;51.132;7.178;2023-04-06T09:23:59;98706.63;;;20.96;nan
62164;BME280;48149;51.132;7.178;2023-04-06T09:26:27;98709.25;;;22.11;nan
62164;BME280;48149;51.132;7.178;2023-04-06T09:28:56;98709.84;;;20.49;nan
62164;BME280;48149;51.132;7.178;2023-04-06T09:31:22;98712.63;;;20.18;nan
62164;BME280;48149;51.132;7.178;2023-04-06T09:33:48;98703.97;;;20.57;nan
62164;BME280;48149;51.132;7.178;2023-04-06T09:36:13;98703.13;;;21.34;nan
62164;BME280;48149;51.132;7.178;2023-04-06T09:39:00;98705.25;;;22.32;nan
62164;BME280;48149;51.132;7.178;2023-04-06T09:41:26;98711.19;;;22.05;nan
62164;BME280;48149;51.132;7.178;2023-04-06T09:43:52;98696.13;;;22.94;nan
62164;BME280;48149;51.132;7.178;2023-04-06T09:46:18;98695.31;;;22.56;nan
62164;BME280;48149;51.132;7.178;2023-04-06T09:48:46;98699.34;;;20.29;nan
62164;BME280;48149;51.132;7.178;2023-04-06T09:51:11;98704.97;;;21.00;nan
62164;BME280;48149;51.132;7.178;2023-04-06T09:53:39;98701.56;;;21.57;nan
62164;BME280;48149;51.132;7.178;2023-04-06T09:56:07;98698.25;;;19.20;nan
62164;BME280;48149;51.132;7.178;2023-04-06T09:58:37;98693.59;;;21.80;nan
62164;BME280;48149;51.132;7.178;2023-04-06T10:03:55;98702.19;;;18.52;nan
62164;BME280;48149;51.132;7.178;2023-04-06T10:06:21;98698.47;;;19.64;nan
62164;BME280;48149;51.132;7.178;2023-04-06T10:08:47;98689.59;;;20.58;nan
62164;BME280;48149;51.132;7.178;2023-04-06T10:11:14;98691.09;;;21.08;nan
62164;BME280;48149;51.132;7.178;2023-04-06T10:13:40;98690.72;;;23.45;nan
62164;BME280;48149;51.132;7.178;2023-04-06T10:16:07;98700.97;;;21.02;nan
62164;BME280;48149;51.132;7.178;2023-04-06T10:18:32;98692.47;;;20.66;nan
62164;BME280;48149;51.132;7.178;2023-04-06T10:21:04;98689.28;;;24.92;nan
62164;BME280;48149;51.132;7.178;2023-04-06T10:23:40;98697.56;;;22.68;nan
62164;BME280;48149;51.132;7.178;2023-04-06T10:26:12;98687.91;;;22.91;nan
62164;BME280;48149;51.132;7.178;2023-04-06T10:28:37;98693.31;;;22.67;nan
62164;BME280;48149;51.132;7.178;2023-04-06T10:31:06;98686.41;;;23.30;nan
62164;BME280;48149;51.132;7.178;2023-04-06T10:33:31;98686.69;;;23.15;nan
62164;BME280;48149;51.132;7.178;2023-04-06T10:35:57;98692.91;;;24.38;nan
62164;BME280;48149;51.132;7.178;2023-04-06T10:38:35;98693.94;;;23.28;nan
62164;BME280;48149;51.132;7.178;2023-04-06T10:41:10;98690.56;;;21.92;nan
62164;BME280;48149;51.132;7.178;2023-04-06T10:43:36;98693.97;;;24.51;nan
62164;BME280;48149;51.132;7.178;2023-04-06T10:46:02;98686.59;;;24.07;nan
62164;BME280;48149;51.132;7.178;2023-04-06T10:48:41;98688.06;;;26.65;nan
62164;BME280;48149;51.132;7.178;2023-04-06T10:51:10;98684.41;;;26.95;nan
62164;BME280;48149;51.132;7.178;2023-04-06T10:53:36;98674.81;;;27.58;nan
62164;BME280;48149;51.132;7.178;2023-04-06T10:56:01;98675.47;;;27.84;nan
62164;BME280;48149;51.132;7.178;2023-04-06T10:58:27;98676.97;;;27.73;nan
62164;BME280;48149;51.132;7.178;2023-04-06T11:00:52;98674.06;;;27.31;nan
62164;BME280;48149;51.132;7.178;2023-04-06T11:03:18;98669.72;;;26.24;nan
62164;BME280;48149;51.132;7.178;2023-04-06T11:05:48;98669.91;;;29.46;nan
62164;BME280;48149;51.132;7.178;2023-04-06T11:08:32;98669.00;;;26.10;nan
62164;BME280;48149;51.132;7.178;2023-04-06T11:11:07;98676.97;;;26.58;nan
62164;BME280;48149;51.132;7.178;2023-04-06T11:13:37;98672.47;;;27.85;nan
62164;BME280;48149;51.132;7.178;2023-04-06T11:16:03;98669.00;;;27.38;nan
62164;BME280;48149;51.132;7.178;2023-04-06T11:18:28;98656.66;;;24.90;nan
62164;BME280;48149;51.132;7.178;2023-04-06T11:20:54;98666.19;;;24.11;nan
62164;BME280;48149;51.132;7.178;2023-04-06T11:23:23;98665.88;;;23.99;nan
62164;BME280;48149;51.132;7.178;2023-04-06T11:25:53;98659.81;;;24.70;nan
62164;BME280;48149;51.132;7.178;2023-04-06T11:28:19;98660.06;;;25.05;nan
62164;BME280;48149;51.132;7.178;2023-04-06T11:30:45;98654.81;;;23.92;nan
62164;BME280;48149;51.132;7.178;2023-04-06T11:33:10;98655.78;;;23.96;nan
62164;BME280;48149;51.132;7.178;2023-04-06T11:35:35;98653.66;;;25.84;nan
62164;BME280;48149;51.132;7.178;2023-04-06T11:38:05;98641.34;;;23.97;nan
62164;BME280;48149;51.132;7.178;2023-04-06T11:40:30;98642.16;;;27.68;nan
62164;BME280;48149;51.132;7.178;2023-04-06T11:42:58;98647.47;;;25.05;nan
62164;BME280;48149;51.132;7.178;2023-04-06T11:45:23;98643.63;;;24.39;nan
62164;BME280;48149;51.132;7.178;2023-04-06T11:47:59;98637.50;;;23.76;nan
62164;BME280;48149;51.132;7.178;2023-04-06T11:50:25;98639.66;;;23.47;nan
62164;BME280;48149;51.132;7.178;2023-04-06T11:52:59;98646.78;;;23.51;nan
62164;BME280;48149;51.132;7.178;2023-04-06T11:55:26;98637.19;;;23.91;nan
62164;BME280;48149;51.132;7.178;2023-04-06T11:57:51;98635.09;;;23.88;nan
62164;BME280;48149;51.132;7.178;2023-04-06T12:00:16;98641.50;;;24.86;nan
62164;BME280;48149;51.132;7.178;2023-04-06T12:02:45;98633.22;;;23.61;nan
62164;BME280;48149;51.132;7.178;2023-04-06T12:05:10;98631.84;;;23.50;nan
62164;BME280;48149;51.132;7.178;2023-04-06T12:07:36;98636.50;;;22.99;nan
62164;BME280;48149;51.132;7.178;2023-04-06T12:10:01;98633.72;;;24.40;nan
62164;BME280;48149;51.132;7.178;2023-04-06T12:12:27;98629.31;;;25.64;nan
62164;BME280;48149;51.132;7.178;2023-04-06T12:14:52;98632.09;;;25.50;nan
62164;BME280;48149;51.132;7.178;2023-04-06T12:17:18;98639.03;;;23.22;nan
62164;BME280;48149;51.132;7.178;2023-04-06T12:19:44;98625.50;;;23.87;nan
62164;BME280;48149;51.132;7.178;2023-04-06T12:22:09;98625.00;;;22.98;nan
62164;BME280;48149;51.132;7.178;2023-04-06T12:24:34;98624.72;;;20.88;nan
62164;BME280;48149;51.132;7.178;2023-04-06T12:27:00;98634.44;;;19.70;nan
62164;BME280;48149;51.132;7.178;2023-04-06T12:29:26;98625.88;;;20.77;nan
62164;BME280;48149;51.132;7.178;2023-04-06T12:31:51;98622.50;;;21.28;nan
62164;BME280;48149;51.132;7.178;2023-04-06T12:34:17;98618.78;;;21.24;nan
62164;BME280;48149;51.132;7.178;2023-04-06T12:36:43;98621.31;;;20.48;nan
62164;BME280;48149;51.132;7.178;2023-04-06T12:39:08;98634.53;;;20.09;nan
62164;BME280;48149;51.132;7.178;2023-04-06T12:41:33;98635.84;;;20.95;nan
62164;BME280;48149;51.132;7.178;2023-04-06T12:43:59;98636.78;;;20.41;nan
62164;BME280;48149;51.132;7.178;2023-04-06T12:46:24;98627.75;;;22.05;nan
62164;BME280;48149;51.132;7.178;2023-04-06T12:48:50;98630.53;;;20.12;nan
62164;BME280;48149;51.132;7.178;2023-04-06T12:51:18;98625.38;;;20.36;nan
62164;BME280;48149;51.132;7.178;2023-04-06T12:53:43;98625.66;;;19.75;nan
62164;BME280;48149;51.132;7.178;2023-04-06T12:56:15;98628.66;;;19.58;nan
62164;BME280;48149;51.132;7.178;2023-04-06T12:58:42;98627.81;;;19.68;nan
62164;BME280;48149;51.132;7.178;2023-04-06T13:01:07;98619.75;;;19.93;nan
62164;BME280;48149;51.132;7.178;2023-04-06T13:03:33;98619.69;;;21.15;nan
62164;BME280;48149;51.132;7.178;2023-04-06T13:05:59;98623.56;;;21.27;nan
62164;BME280;48149;51.132;7.178;2023-04-06T13:08:25;98617.00;;;20.57;nan
62164;BME280;48149;51.132;7.178;2023-04-06T13:10:50;98621.78;;;21.18;nan
62164;BME280;48149;51.132;7.178;2023-04-06T13:13:23;98607.03;;;20.73;nan
62164;BME280;48149;51.132;7.178;2023-04-06T13:15:49;98605.91;;;20.79;nan
62164;BME280;48149;51.132;7.178;2023-04-06T13:18:15;98615.69;;;20.84;nan
62164;BME280;48149;51.132;7.178;2023-04-06T13:20:41;98605.88;;;20.50;nan